Time;durP1;ratioP1;P1;durP2;ratioP2;P2;SDS_P1;SDS_P2;PMS_P1;PMS_P2;Temp;Humidity;BMP_temperature;BMP_pressure;BME280_temperature;BME280_humidity;BME280_pressure;Samples;Min_cycle;Max_cycle;Signal;HPM_P1;HPM_P2
2022/06/27 00:02:09;;;;;;;;;;;;;;;20.35;100.00;100176.44;5133958;28;20481;-45
2022/06/27 00:04:35;;;;;;;;;;;;;;;20.30;100.00;100172.09;5133819;28;19927;-45
2022/06/27 00:07:01;;;;;;;;;;;;;;;20.21;100.00;100172.53;5133412;28;19934;-44
2022/06/27 00:09:27;;;;;;;;;;;;;;;20.20;100.00;100162.59;5133441;28;19927;-45
2022/06/27 00:11:55;;;;;;;;;;;;;;;20.18;100.00;100172.53;5133573;28;19928;-44
2022/06/27 00:14:21;;;;;;;;;;;;;;;20.06;100.00;100154.31;5133385;28;19928;-44
2022/06/27 00:16:47;;;;;;;;;;;;;;;20.10;100.00;100168.22;5133785;28;20018;-45
2022/06/27 00:19:13;;;;;;;;;;;;;;;20.08;100.00;100159.47;5133431;28;19928;-45
2022/06/27 00:21:39;;;;;;;;;;;;;;;20.06;100.00;100164.63;5133650;28;20280;-44
2022/06/27 00:24:05;;;;;;;;;;;;;;;20.03;100.00;100159.91;5133306;28;19928;-45
2022/06/27 00:26:32;;;;;;;;;;;;;;;20.00;100.00;100167.06;5132456;27;19928;-45
2022/06/27 00:28:57;;;;;;;;;;;;;;;19.95;100.00;100156.34;5133162;28;19931;-45
2022/06/27 00:31:23;;;;;;;;;;;;;;;19.97;100.00;100159.53;5133225;28;19927;-45
2022/06/27 00:33:49;;;;;;;;;;;;;;;19.91;100.00;100159.16;5133173;28;19935;-46
2022/06/27 00:36:15;;;;;;;;;;;;;;;19.93;100.00;100161.53;5133140;28;19927;-45
2022/06/27 00:38:41;;;;;;;;;;;;;;;19.82;100.00;100158.00;5133088;28;19927;-47
2022/06/27 00:41:07;;;;;;;;;;;;;;;19.85;100.00;100157.19;5132862;28;19927;-45
2022/06/27 00:43:34;;;;;;;;;;;;;;;19.82;100.00;100156.00;5132995;28;19934;-46
2022/06/27 00:46:00;;;;;;;;;;;;;;;19.82;100.00;100161.56;5133022;28;19927;-46
2022/06/27 00:48:25;;;;;;;;;;;;;;;19.82;100.00;100161.56;5133251;28;19949;-46
2022/06/27 00:50:52;;;;;;;;;;;;;;;19.79;100.00;100167.13;5132738;28;19934;-45
2022/06/27 00:53:18;;;;;;;;;;;;;;;19.74;100.00;100152.47;5133166;28;19939;-45
2022/06/27 00:55:44;;;;;;;;;;;;;;;19.72;100.00;100159.63;5132866;28;19937;-45
2022/06/27 00:58:10;;;;;;;;;;;;;;;19.74;100.00;100160.00;5133083;28;19939;-46
2022/06/27 01:00:37;;;;;;;;;;;;;;;19.78;100.00;100155.22;5133019;28;20734;-46
2022/06/27 01:03:03;;;;;;;;;;;;;;;19.83;100.00;100149.25;5132966;28;20406;-47
2022/06/27 01:05:29;;;;;;;;;;;;;;;19.87;100.00;100158.38;5132613;28;19931;-45
2022/06/27 01:07:55;;;;;;;;;;;;;;;19.86;100.00;100161.53;5132397;28;20038;-46
2022/06/27 01:10:21;;;;;;;;;;;;;;;19.87;100.00;100168.72;5132832;28;19927;-45
2022/06/27 01:12:48;;;;;;;;;;;;;;;19.86;100.00;100165.16;5132427;28;19927;-46
2022/06/27 01:15:14;;;;;;;;;;;;;;;19.85;100.00;100168.31;5132687;28;20417;-45
2022/06/27 01:17:41;;;;;;;;;;;;;;;19.75;100.00;100159.59;5132362;28;19927;-45
2022/06/27 01:20:07;;;;;;;;;;;;;;;19.74;100.00;100163.59;5132823;28;19934;-48
2022/06/27 01:22:34;;;;;;;;;;;;;;;19.67;100.00;100155.28;5132271;28;19927;-45
2022/06/27 01:25:00;;;;;;;;;;;;;;;19.72;100.00;100160.41;5132547;28;19974;-46
2022/06/27 01:27:26;;;;;;;;;;;;;;;19.70;100.00;100156.47;5132455;28;19934;-46
2022/06/27 01:29:52;;;;;;;;;;;;;;;19.68;100.00;100154.06;5132412;28;19927;-47
2022/06/27 01:32:18;;;;;;;;;;;;;;;19.69;100.00;100152.06;5132624;28;20425;-47
2022/06/27 01:34:44;;;;;;;;;;;;;;;19.68;100.00;100158.84;5132010;28;19927;-45
2022/06/27 01:37:10;;;;;;;;;;;;;;;19.66;100.00;100158.44;5132080;28;19935;-48
2022/06/27 01:39:37;;;;;;;;;;;;;;;19.67;100.00;100152.50;5132087;27;19928;-45
2022/06/27 01:42:04;;;;;;;;;;;;;;;19.64;100.00;100144.94;5132165;28;19927;-45
2022/06/27 01:44:31;;;;;;;;;;;;;;;19.70;100.00;100143.34;5131976;28;19934;-45
2022/06/27 01:47:01;;;;;;;;;;;;;;;19.71;100.00;100147.69;5132067;28;19972;-45
2022/06/27 01:49:28;;;;;;;;;;;;;;;19.70;100.00;100148.13;5131845;28;20029;-45
2022/06/27 01:51:55;;;;;;;;;;;;;;;19.68;100.00;100145.72;5132115;28;19970;-45
2022/06/27 01:54:21;;;;;;;;;;;;;;;19.67;100.00;100152.50;5131978;28;19934;-45
2022/06/27 01:56:49;;;;;;;;;;;;;;;19.63;100.00;100151.72;5131997;28;19927;-45
2022/06/27 01:59:16;;;;;;;;;;;;;;;19.55;100.00;100147.31;5131865;28;19934;-45
2022/06/27 02:01:43;;;;;;;;;;;;;;;19.62;100.00;100135.38;5131656;28;19938;-45
2022/06/27 02:04:09;;;;;;;;;;;;;;;19.62;100.00;100149.28;5131581;28;20283;-45
2022/06/27 02:06:35;;;;;;;;;;;;;;;19.59;100.00;100142.53;5131686;28;19980;-44
2022/06/27 02:09:03;;;;;;;;;;;;;;;19.63;100.00;100143.38;5131846;28;19927;-45
2022/06/27 02:11:30;;;;;;;;;;;;;;;19.65;100.00;100143.75;5131658;28;20018;-45
2022/06/27 02:13:57;;;;;;;;;;;;;;;19.71;100.00;100144.13;5131828;28;19927;-45
2022/06/27 02:16:23;;;;;;;;;;;;;;;19.75;100.00;100145.69;5131592;28;20039;-45
2022/06/27 02:18:49;;;;;;;;;;;;;;;19.75;100.00;100151.25;5131662;28;20382;-46
2022/06/27 02:21:16;;;;;;;;;;;;;;;19.83;100.00;100151.25;5131824;28;19939;-45
2022/06/27 02:23:42;;;;;;;;;;;;;;;20.02;100.00;100150.75;5131417;28;19931;-44
2022/06/27 02:26:10;;;;;;;;;;;;;;;20.43;100.00;100169.63;5131405;28;20425;-45
2022/06/27 02:28:36;;;;;;;;;;;;;;;20.74;100.00;100206.84;5131454;28;19927;-45
2022/06/27 02:31:03;;;;;;;;;;;;;;;21.01;100.00;100234.13;5131254;28;19927;-45
2022/06/27 02:33:33;;;;;;;;;;;;;;;21.27;100.00;100253.03;5131220;28;19935;-45
2022/06/27 02:36:00;;;;;;;;;;;;;;;21.49;100.00;100247.28;5131107;28;19934;-45
2022/06/27 02:38:27;;;;;;;;;;;;;;;21.78;100.00;100220.69;5131373;28;19927;-45
2022/06/27 02:40:53;;;;;;;;;;;;;;;22.04;100.00;100204.44;5131487;28;20310;-45
2022/06/27 02:43:20;;;;;;;;;;;;;;;22.28;100.00;100178.19;5131192;28;19934;-45
2022/06/27 02:45:47;;;;;;;;;;;;;;;22.51;100.00;100132.78;5131354;28;20310;-45
2022/06/27 02:48:16;;;;;;;;;;;;;;;22.65;100.00;100097.44;5131179;28;19931;-45
2022/06/27 02:50:44;;;;;;;;;;;;;;;22.81;100.00;100066.81;5130463;27;19931;-45
2022/06/27 02:53:11;;;;;;;;;;;;;;;22.97;100.00;100035.41;5131046;28;20386;-45
2022/06/27 02:55:39;;;;;;;;;;;;;;;23.19;100.00;100005.00;5131080;28;19928;-45
2022/06/27 02:58:09;;;;;;;;;;;;;;;23.21;100.00;99964.19;5130935;28;20321;-45
2022/06/27 03:00:36;;;;;;;;;;;;;;;23.62;100.00;99923.69;5130877;28;20387;-46
2022/06/27 03:03:04;;;;;;;;;;;;;;;23.78;100.00;99860.59;5131259;28;19991;-46
2022/06/27 03:05:30;;;;;;;;;;;;;;;24.10;100.00;99810.13;5131021;28;19931;-46
2022/06/27 03:07:56;;;;;;;;;;;;;;;24.15;100.00;99742.34;5131028;28;20289;-45
2022/06/27 03:10:22;;;;;;;;;;;;;;;24.42;100.00;99725.22;5130756;28;19933;-45
2022/06/27 03:12:48;;;;;;;;;;;;;;;24.61;100.00;99600.06;5130918;28;19931;-49
2022/06/27 03:15:14;;;;;;;;;;;;;;;24.88;100.00;99574.34;5130803;28;19934;-45
2022/06/27 03:17:40;;;;;;;;;;;;;;;24.93;100.00;99504.91;5130840;28;19927;-46
2022/06/27 03:20:07;;;;;;;;;;;;;;;25.25;100.00;99420.38;5130771;28;20404;-46
2022/06/27 03:22:33;;;;;;;;;;;;;;;25.76;100.00;99265.56;5130638;28;19927;-46
2022/06/27 03:24:59;;;;;;;;;;;;;;;25.84;100.00;99206.31;5130686;28;20022;-47
2022/06/27 03:27:25;;;;;;;;;;;;;;;26.20;100.00;99160.53;5130492;28;19934;-46
2022/06/27 03:29:51;;;;;;;;;;;;;;;26.31;100.00;99135.53;5130622;28;19984;-46
2022/06/27 03:32:17;;;;;;;;;;;;;;;26.56;100.00;99024.75;5130654;28;19928;-46
2022/06/27 03:34:43;;;;;;;;;;;;;;;26.81;100.00;99023.47;5130834;28;20489;-47
2022/06/27 03:37:09;;;;;;;;;;;;;;;26.97;100.00;98966.78;5130666;28;20309;-48
2022/06/27 03:39:36;;;;;;;;;;;;;;;27.05;100.00;98927.78;5130557;28;19928;-48
2022/06/27 03:42:02;;;;;;;;;;;;;;;27.44;100.00;98866.56;5130517;28;20018;-46
2022/06/27 03:44:29;;;;;;;;;;;;;;;27.48;100.00;98829.78;5130457;28;19974;-46
2022/06/27 03:46:55;;;;;;;;;;;;;;;27.60;100.00;98808.22;5130588;28;19929;-46
2022/06/27 03:52:05;;;;;;;;;;;;;;;28.01;100.00;98747.06;5130459;28;20015;-45
2022/06/27 03:54:31;;;;;;;;;;;;;;;28.49;100.00;98723.22;5130111;28;20412;-47
2022/06/27 03:56:57;;;;;;;;;;;;;;;28.70;100.00;98707.03;5130202;28;19927;-46
2022/06/27 03:59:23;;;;;;;;;;;;;;;29.04;100.00;98705.25;5130194;28;19927;-47
2022/06/27 04:01:49;;;;;;;;;;;;;;;28.33;100.00;98707.69;5130992;27;19934;-47
2022/06/27 04:04:15;;;;;;;;;;;;;;;29.25;100.00;98714.34;5133618;28;19927;-46
2022/06/27 04:06:41;;;;;;;;;;;;;;;29.48;100.00;98706.78;5133873;28;19927;-46
2022/06/27 04:09:07;;;;;;;;;;;;;;;29.60;100.00;98708.44;5133552;28;19927;-49
2022/06/27 04:11:33;;;;;;;;;;;;;;;30.09;100.00;98716.81;5133762;28;19935;-46
2022/06/27 04:14:00;;;;;;;;;;;;;;;30.04;100.00;98734.53;5133470;28;19927;-46
2022/06/27 04:16:25;;;;;;;;;;;;;;;30.21;100.00;98724.06;5133579;28;20418;-46
2022/06/27 04:18:54;;;;;;;;;;;;;;;30.69;100.00;98755.00;5133561;28;19927;-47
2022/06/27 04:21:20;;;;;;;;;;;;;;;30.59;100.00;98748.06;5133390;28;19975;-49
2022/06/27 04:23:45;;;;;;;;;;;;;;;30.64;100.00;98755.00;5133389;28;19949;-47
2022/06/27 04:26:11;;;;;;;;;;;;;;;30.85;100.00;98766.84;5133131;28;20386;-47
2022/06/27 04:28:37;;;;;;;;;;;;;;;31.22;100.00;98786.41;5133283;28;19934;-48
2022/06/27 04:31:04;;;;;;;;;;;;;;;30.81;100.00;98806.72;5133132;28;19928;-48
2022/06/27 04:33:30;;;;;;;;;;;;;;;30.98;100.00;98766.34;5133265;28;19935;-46
2022/06/27 04:35:56;;;;;;;;;;;;;;;31.45;100.00;98826.06;5133140;28;20275;-47
2022/06/27 04:38:22;;;;;;;;;;;;;;;31.50;100.00;98823.22;5133168;28;19934;-46
2022/06/27 04:40:48;;;;;;;;;;;;;;;32.02;100.00;98804.81;5133111;28;19950;-46
2022/06/27 04:43:15;;;;;;;;;;;;;;;32.14;100.00;98836.75;5133139;28;20310;-47
2022/06/27 04:45:41;;;;;;;;;;;;;;;32.29;100.00;98845.69;5133096;28;20422;-47
2022/06/27 04:48:10;;;;;;;;;;;;;;;31.79;100.00;98806.91;5133113;28;20245;-50
2022/06/27 04:50:36;;;;;;;;;;;;;;;32.06;100.00;98805.34;5132800;28;19978;-47
2022/06/27 04:53:03;;;;;;;;;;;;;;;31.70;100.00;98779.66;5132850;28;19935;-48
2022/06/27 04:55:30;;;;;;;;;;;;;;;31.97;100.00;98775.19;5132986;28;19928;-50
2022/06/27 04:57:56;;;;;;;;;;;;;;;32.25;100.00;98800.59;5133043;28;19967;-47
2022/06/27 05:00:22;;;;;;;;;;;;;;;32.75;100.00;98861.22;5132988;28;20468;-47
2022/06/27 05:02:49;;;;;;;;;;;;;;;32.89;100.00;98908.38;5133288;28;19931;-49
2022/06/27 05:05:15;;;;;;;;;;;;;;;33.03;100.00;98872.44;5132914;28;19934;-50
2022/06/27 05:07:43;;;;;;;;;;;;;;;33.16;100.00;98898.16;5132753;28;20290;-47
2022/06/27 05:10:09;;;;;;;;;;;;;;;33.03;100.00;98880.94;5132883;28;19950;-47
2022/06/27 05:12:35;;;;;;;;;;;;;;;33.42;100.00;98919.63;5132110;27;19928;-50
2022/06/27 05:15:01;;;;;;;;;;;;;;;33.07;100.00;98915.50;5132554;28;19949;-47
2022/06/27 05:17:27;;;;;;;;;;;;;;;33.27;100.00;98895.22;5132375;28;20309;-47
2022/06/27 05:19:53;;;;;;;;;;;;;;;33.43;100.00;98916.28;5132337;28;19927;-48
2022/06/27 05:22:20;;;;;;;;;;;;;;;34.15;100.00;98933.22;5132190;28;19934;-50
2022/06/27 05:24:48;;;;;;;;;;;;;;;34.63;100.00;98938.13;5132244;28;19931;-46
2022/06/27 05:27:14;;;;;;;;;;;;;;;34.19;100.00;98917.44;5132350;28;20349;-47
2022/06/27 05:29:40;;;;;;;;;;;;;;;34.57;100.00;98957.34;5132246;28;19934;-47
2022/06/27 05:32:07;;;;;;;;;;;;;;;33.92;100.00;98949.72;5132302;28;20301;-49
2022/06/27 05:34:33;;;;;;;;;;;;;;;34.48;100.00;98952.00;5132172;28;19927;-50
2022/06/27 05:36:59;;;;;;;;;;;;;;;34.73;100.00;99003.25;5132185;28;19931;-49
2022/06/27 05:39:26;;;;;;;;;;;;;;;34.96;100.00;98998.81;5131995;28;19948;-47
2022/06/27 05:41:52;;;;;;;;;;;;;;;35.11;100.00;98998.38;5132082;28;19927;-47
2022/06/27 05:44:18;;;;;;;;;;;;;;;34.65;100.00;98988.81;5131999;28;20310;-50
2022/06/27 05:46:44;;;;;;;;;;;;;;;35.10;100.00;98962.66;5131933;28;20310;-47
2022/06/27 05:49:11;;;;;;;;;;;;;;;35.35;100.00;99046.72;5131723;28;19935;-48
2022/06/27 05:51:37;;;;;;;;;;;;;;;35.11;100.00;99039.03;5131747;28;19979;-48
2022/06/27 05:54:05;;;;;;;;;;;;;;;35.61;100.00;99021.78;5131969;28;19931;-45
2022/06/27 05:56:33;;;;;;;;;;;;;;;36.02;100.00;99064.16;5131707;28;19972;-50
2022/06/27 05:58:59;;;;;;;;;;;;;;;36.22;100.00;99120.66;5131952;28;19935;-46
2022/06/27 06:01:25;;;;;;;;;;;;;;;36.07;100.00;99133.88;5131768;28;19970;-47
2022/06/27 06:03:51;;;;;;;;;;;;;;;36.28;100.00;99138.44;5131834;28;19927;-49
2022/06/27 06:06:18;;;;;;;;;;;;;;;36.46;100.00;99087.56;5131468;28;20408;-46
2022/06/27 06:08:43;;;;;;;;;;;;;;;35.51;100.00;99050.66;5131586;28;19933;-49
2022/06/27 06:11:10;;;;;;;;;;;;;;;35.53;100.00;99139.28;5131449;28;19927;-50
2022/06/27 06:13:36;;;;;;;;;;;;;;;35.18;100.00;99139.44;5131381;28;20012;-48
2022/06/27 06:16:06;;;;;;;;;;;;;;;36.20;100.00;99126.13;5131102;28;19979;-47
2022/06/27 06:18:33;;;;;;;;;;;;;;;35.80;100.00;99168.72;5131273;28;19972;-47
2022/06/27 06:20:59;;;;;;;;;;;;;;;36.15;100.00;99169.03;5131124;28;19931;-49
2022/06/27 06:23:25;;;;;;;;;;;;;;;36.00;100.00;99167.41;5131345;28;19935;-49
2022/06/27 06:25:51;;;;;;;;;;;;;;;35.09;100.00;99144.22;5130227;27;19931;-46
2022/06/27 06:28:17;;;;;;;;;;;;;;;36.26;100.00;99152.50;5131226;28;20409;-49
2022/06/27 06:30:44;;;;;;;;;;;;;;;36.42;100.00;99176.38;5131181;28;19949;-49
2022/06/27 06:33:10;;;;;;;;;;;;;;;36.29;100.00;99162.06;5131051;28;19927;-46
2022/06/27 06:35:36;;;;;;;;;;;;;;;36.25;100.00;99165.22;5131117;28;19949;-48
2022/06/27 06:38:03;;;;;;;;;;;;;;;35.76;100.00;99139.75;5130999;28;19942;-49
2022/06/27 06:40:29;;;;;;;;;;;;;;;35.94;100.00;99161.00;5131359;28;19928;-49
2022/06/27 06:42:55;;;;;;;;;;;;;;;36.44;100.00;99133.78;5131104;28;20340;-48
2022/06/27 06:45:21;;;;;;;;;;;;;;;35.75;100.00;99149.59;5130935;28;19970;-50
2022/06/27 06:47:49;;;;;;;;;;;;;;;35.61;100.00;99113.00;5130751;28;19927;-55
2022/06/27 06:50:18;;;;;;;;;;;;;;;35.86;100.00;99128.72;5131254;28;19927;-55
2022/06/27 06:52:44;;;;;;;;;;;;;;;35.30;100.00;99129.47;5130725;28;19928;-53
2022/06/27 06:55:11;;;;;;;;;;;;;;;36.74;100.00;99115.63;5131202;28;20034;-53
2022/06/27 06:57:37;;;;;;;;;;;;;;;37.44;100.00;99115.31;5131185;28;20053;-51
2022/06/27 07:00:04;;;;;;;;;;;;;;;36.41;100.00;99123.44;5131029;28;19988;-54
2022/06/27 07:02:30;;;;;;;;;;;;;;;37.24;100.00;99141.69;5131070;28;19927;-55
2022/06/27 07:04:58;;;;;;;;;;;;;;;36.87;100.00;99166.28;5130656;28;20409;-54
2022/06/27 07:07:25;;;;;;;;;;;;;;;36.41;100.00;99148.38;5130942;28;19927;-58
2022/06/27 07:09:51;;;;;;;;;;;;;;;37.42;100.00;99132.19;5130984;28;20393;-58
2022/06/27 07:12:18;;;;;;;;;;;;;;;36.74;100.00;99198.44;5130843;28;19928;-59
2022/06/27 07:14:45;;;;;;;;;;;;;;;35.98;100.00;99152.91;5130500;28;19981;-60
2022/06/27 07:17:11;;;;;;;;;;;;;;;36.07;100.00;99159.56;5130601;28;20378;-59
2022/06/27 07:19:38;;;;;;;;;;;;;;;35.98;100.00;99164.31;5130616;28;19928;-58
2022/06/27 07:22:05;;;;;;;;;;;;;;;35.43;100.00;99143.03;5130444;28;20402;-53
2022/06/27 07:24:31;;;;;;;;;;;;;;;35.87;100.00;99217.91;5130528;28;20332;-54
2022/06/27 07:26:59;;;;;;;;;;;;;;;35.97;100.00;99210.50;5130209;28;19927;-54
2022/06/27 07:29:25;;;;;;;;;;;;;;;36.57;100.00;99195.13;5130193;28;19935;-55
2022/06/27 07:31:51;;;;;;;;;;;;;;;36.41;100.00;99214.03;5130563;28;20023;-53
2022/06/27 07:34:19;;;;;;;;;;;;;;;36.21;100.00;99226.78;5130467;28;20294;-54
2022/06/27 07:36:46;;;;;;;;;;;;;;;35.92;100.00;99239.88;5132275;27;19928;-55
2022/06/27 07:39:13;;;;;;;;;;;;;;;35.95;100.00;99228.16;5133961;28;19927;-54
2022/06/27 07:41:39;;;;;;;;;;;;;;;36.27;100.00;99213.22;5133566;28;19927;-51
2022/06/27 07:44:05;;;;;;;;;;;;;;;36.84;100.00;99215.94;5133706;28;20339;-54
2022/06/27 07:46:34;;;;;;;;;;;;;;;37.39;100.00;99234.16;5133811;28;19927;-52
2022/06/27 07:49:00;;;;;;;;;;;;;;;35.80;100.00;99222.91;5133702;28;19931;-53
2022/06/27 07:51:26;;;;;;;;;;;;;;;36.13;100.00;99225.88;5133670;28;19979;-54
2022/06/27 07:53:52;;;;;;;;;;;;;;;36.43;100.00;99257.84;5133480;28;19936;-51
2022/06/27 07:56:20;;;;;;;;;;;;;;;36.85;100.00;99269.66;5133591;28;20394;-53
2022/06/27 07:58:48;;;;;;;;;;;;;;;36.20;100.00;99259.50;5133446;28;19928;-55
2022/06/27 08:01:14;;;;;;;;;;;;;;;36.28;100.00;99232.63;5133536;28;19928;-50
2022/06/27 08:03:42;;;;;;;;;;;;;;;35.83;100.00;99213.28;5133470;28;20018;-52
2022/06/27 08:06:10;;;;;;;;;;;;;;;35.64;100.00;99271.59;5133627;28;20360;-53
2022/06/27 08:08:37;;;;;;;;;;;;;;;35.98;100.00;99229.16;5133226;28;19934;-54
2022/06/27 08:11:03;;;;;;;;;;;;;;;36.41;100.00;99285.41;5133226;28;19927;-55
2022/06/27 08:13:31;;;;;;;;;;;;;;;36.49;100.00;99334.91;5133140;28;20402;-55
2022/06/27 08:15:57;;;;;;;;;;;;;;;36.82;100.00;99275.69;5133424;28;19950;-55
2022/06/27 08:18:23;;;;;;;;;;;;;;;36.17;100.00;99298.44;5133249;28;19933;-55
2022/06/27 08:20:50;;;;;;;;;;;;;;;35.87;100.00;99252.13;5133407;28;19927;-52
2022/06/27 08:23:17;;;;;;;;;;;;;;;35.30;100.00;99303.31;5133401;28;19950;-53
2022/06/27 08:25:46;;;;;;;;;;;;;;;33.96;100.00;99252.44;5133070;28;19928;-54
2022/06/27 08:28:13;;;;;;;;;;;;;;;33.32;100.00;99183.41;5133213;28;19927;-52
2022/06/27 08:30:42;;;;;;;;;;;;;;;33.72;100.00;99150.72;5133052;28;19928;-53
2022/06/27 08:33:08;;;;;;;;;;;;;;;33.92;100.00;99151.63;5133116;28;19927;-51
2022/06/27 08:35:35;;;;;;;;;;;;;;;35.03;100.00;99209.03;5132853;28;19956;-53
2022/06/27 08:38:02;;;;;;;;;;;;;;;35.95;100.00;99238.78;5132347;28;20288;-53
2022/06/27 08:40:28;;;;;;;;;;;;;;;35.61;100.00;99259.19;5132776;28;19928;-54
2022/06/27 08:42:55;;;;;;;;;;;;;;;35.06;100.00;99252.78;5133154;28;19955;-53
2022/06/27 08:45:23;;;;;;;;;;;;;;;34.10;100.00;99249.81;5132909;28;19927;-53
2022/06/27 08:47:50;;;;;;;;;;;;;;;33.98;100.00;99192.19;5132036;27;19974;-55
2022/06/27 08:50:17;;;;;;;;;;;;;;;33.15;100.00;99185.53;5133034;28;20029;-53
2022/06/27 08:52:45;;;;;;;;;;;;;;;33.44;100.00;99107.44;5132889;28;19927;-52
2022/06/27 08:55:12;;;;;;;;;;;;;;;32.73;100.00;99148.44;5132912;28;19927;-53
2022/06/27 08:57:40;;;;;;;;;;;;;;;32.98;100.00;99120.25;5132557;28;20125;-53
2022/06/27 09:00:07;;;;;;;;;;;;;;;34.25;100.00;99167.72;5132955;28;20275;-55
2022/06/27 09:02:33;;;;;;;;;;;;;;;35.36;100.00;99247.03;5132631;28;20004;-53
2022/06/27 09:05:02;;;;;;;;;;;;;;;36.08;100.00;99238.13;5132538;28;19942;-54
2022/06/27 09:07:44;;;;;;;;;;;;;;;36.50;100.00;99254.41;5132742;28;20372;-52
2022/06/27 09:10:22;;;;;;;;;;;;;;;35.41;100.00;99282.47;5132511;28;19928;-52
2022/06/27 09:12:53;;;;;;;;;;;;;;;35.71;100.00;99308.06;5132658;28;19927;-54
2022/06/27 09:15:19;;;;;;;;;;;;;;;35.97;100.00;99274.03;5132368;28;19927;-53
2022/06/27 09:17:59;;;;;;;;;;;;;;;35.02;100.00;99267.31;5132620;28;20416;-55
2022/06/27 09:20:27;;;;;;;;;;;;;;;34.82;100.00;99237.16;5132452;28;19977;-55
2022/06/27 09:22:53;;;;;;;;;;;;;;;34.69;100.00;99217.09;5132657;28;19964;-54
2022/06/27 09:25:21;;;;;;;;;;;;;;;34.26;100.00;99180.66;5132459;28;19938;-53
2022/06/27 09:27:50;;;;;;;;;;;;;;;34.09;100.00;99163.72;5132156;28;20001;-54
2022/06/27 09:30:22;;;;;;;;;;;;;;;34.16;100.00;99109.09;5132202;28;20309;-56
2022/06/27 09:32:50;;;;;;;;;;;;;;;34.41;100.00;99155.41;5132271;28;19984;-55
2022/06/27 09:35:21;;;;;;;;;;;;;;;34.74;100.00;99204.09;5131912;28;19928;-52
2022/06/27 09:37:51;;;;;;;;;;;;;;;34.53;100.00;99241.53;5132064;28;20340;-55
2022/06/27 09:40:17;;;;;;;;;;;;;;;35.45;100.00;99229.53;5132327;28;19927;-52
2022/06/27 09:42:45;;;;;;;;;;;;;;;34.88;100.00;99226.47;5131984;28;19935;-53
2022/06/27 09:45:13;;;;;;;;;;;;;;;34.53;100.00;99190.31;5132210;28;19934;-55
2022/06/27 09:47:39;;;;;;;;;;;;;;;34.19;100.00;99162.09;5131772;28;19984;-53
2022/06/27 09:50:06;;;;;;;;;;;;;;;33.70;100.00;99146.84;5131773;28;19928;-53
2022/06/27 09:52:32;;;;;;;;;;;;;;;33.73;100.00;99148.66;5131729;28;19980;-52
2022/06/27 09:54:59;;;;;;;;;;;;;;;32.49;100.00;99131.16;5131732;28;19932;-53
2022/06/27 09:57:25;;;;;;;;;;;;;;;31.97;100.00;99115.41;5131726;28;19928;-53
2022/06/27 09:59:51;;;;;;;;;;;;;;;33.10;100.00;99103.97;5131539;27;20025;-54
2022/06/27 10:02:19;;;;;;;;;;;;;;;33.48;100.00;99114.41;5131709;28;20391;-55
2022/06/27 10:04:46;;;;;;;;;;;;;;;32.74;100.00;99093.19;5131579;28;20381;-55
2022/06/27 10:07:13;;;;;;;;;;;;;;;32.40;100.00;99095.31;5131685;28;20282;-52
2022/06/27 10:09:40;;;;;;;;;;;;;;;32.24;100.00;99081.91;5131340;28;19931;-54
2022/06/27 10:12:27;;;;;;;;;;;;;;;32.29;100.00;99107.44;5131788;28;19981;-54
2022/06/27 10:15:10;;;;;;;;;;;;;;;32.31;100.00;99059.44;5131557;28;19947;-54
2022/06/27 10:17:37;;;;;;;;;;;;;;;32.34;100.00;99086.78;5114300;28;20026;-53
2022/06/27 10:20:06;;;;;;;;;;;;;;;32.20;100.00;99089.91;5131410;28;19927;-53
2022/06/27 10:22:32;;;;;;;;;;;;;;;32.20;100.00;99065.16;5131503;28;20060;-57
2022/06/27 10:25:32;;;;;;;;;;;;;;;31.86;100.00;98994.25;5131719;28;19931;-56
2022/06/27 10:28:13;;;;;;;;;;;;;;;30.77;100.00;98978.84;5131351;28;19927;-51
2022/06/27 10:30:41;;;;;;;;;;;;;;;31.28;100.00;98979.75;5131076;28;19928;-55
2022/06/27 10:33:34;;;;;;;;;;;;;;;31.97;100.00;99040.94;5131213;28;19966;-53
2022/06/27 10:36:10;;;;;;;;;;;;;;;32.26;100.00;99065.16;5131465;28;20017;-54
2022/06/27 10:38:43;;;;;;;;;;;;;;;31.98;100.00;99076.47;5131282;28;19927;-54
2022/06/27 10:41:10;;;;;;;;;;;;;;;31.56;100.00;99013.06;5130944;28;19980;-55
2022/06/27 10:43:38;;;;;;;;;;;;;;;32.37;100.00;99019.75;5131254;28;20300;-56
2022/06/27 10:46:36;;;;;;;;;;;;;;;32.69;100.00;99050.63;5130994;28;19971;-56
2022/06/27 10:49:16;;;;;;;;;;;;;;;32.62;100.00;99066.13;5130952;28;19928;-60
2022/06/27 10:51:42;;;;;;;;;;;;;;;32.97;100.00;99065.53;5130990;28;19931;-59
2022/06/27 10:54:09;;;;;;;;;;;;;;;33.30;100.00;99111.38;5130982;28;19938;-59
2022/06/27 10:56:36;;;;;;;;;;;;;;;32.00;100.00;99022.88;5131074;28;20308;-52
2022/06/27 10:59:03;;;;;;;;;;;;;;;32.00;100.00;99020.06;5130894;28;20355;-51
2022/06/27 11:01:30;;;;;;;;;;;;;;;32.47;100.00;99054.31;5131168;28;20030;-53
2022/06/27 11:03:56;;;;;;;;;;;;;;;32.32;100.00;99065.91;5130623;28;19934;-51
2022/06/27 11:06:22;;;;;;;;;;;;;;;32.20;100.00;99082.16;5131030;28;19962;-51
2022/06/27 11:08:49;;;;;;;;;;;;;;;32.47;100.00;99100.47;5130998;28;19931;-53
2022/06/27 11:11:16;;;;;;;;;;;;;;;32.78;100.00;99058.88;5132000;27;20389;-55
2022/06/27 11:13:44;;;;;;;;;;;;;;;32.54;100.00;99142.50;5134407;28;19956;-55
2022/06/27 11:16:10;;;;;;;;;;;;;;;32.95;100.00;99116.38;5134149;28;20425;-51
2022/06/27 11:18:44;;;;;;;;;;;;;;;33.17;100.00;99075.03;5134289;28;20271;-54
2022/06/27 11:21:10;;;;;;;;;;;;;;;32.97;100.00;99096.78;5134340;28;20019;-55
2022/06/27 11:23:51;;;;;;;;;;;;;;;32.92;100.00;99040.75;5134546;28;19927;-53
2022/06/27 11:26:17;;;;;;;;;;;;;;;33.17;100.00;99057.97;5134101;28;19927;-53
2022/06/27 11:34:12;;;;;;;;;;;;;;;32.65;100.00;99053.75;5134009;28;20023;-58
2022/06/27 11:36:39;;;;;;;;;;;;;;;32.94;100.00;99051.59;5134207;28;20392;-56
2022/06/27 11:39:05;;;;;;;;;;;;;;;32.60;100.00;99080.09;5133785;28;20323;-58
2022/06/27 11:41:32;;;;;;;;;;;;;;;32.56;100.00;99059.72;5134277;28;19927;-58
2022/06/27 11:44:00;;;;;;;;;;;;;;;32.00;100.00;99090.94;5133848;28;20564;-58
2022/06/27 11:46:29;;;;;;;;;;;;;;;32.19;100.00;99048.63;5134052;28;20310;-57
2022/06/27 11:48:56;;;;;;;;;;;;;;;32.23;100.00;99075.47;5133677;28;20354;-57
2022/06/27 11:51:23;;;;;;;;;;;;;;;32.25;100.00;99089.09;5133765;28;19938;-57
2022/06/27 11:53:54;;;;;;;;;;;;;;;31.99;100.00;99134.72;5133649;28;19928;-54
2022/06/27 11:56:21;;;;;;;;;;;;;;;32.13;100.00;99098.94;5133890;28;19928;-58
2022/06/27 11:58:50;;;;;;;;;;;;;;;31.84;100.00;99104.53;5133908;28;19931;-58
2022/06/27 12:01:16;;;;;;;;;;;;;;;31.70;100.00;99065.09;5133389;28;19991;-58
2022/06/27 12:03:57;;;;;;;;;;;;;;;31.92;100.00;99053.03;5133667;28;19935;-56
2022/06/27 12:06:23;;;;;;;;;;;;;;;32.39;100.00;99044.75;5132492;28;19931;-58
2022/06/27 12:08:58;;;;;;;;;;;;;;;31.56;100.00;99044.22;5133622;28;19973;-57
2022/06/27 12:11:28;;;;;;;;;;;;;;;32.03;100.00;99084.22;5133313;28;19933;-57
2022/06/27 12:13:58;;;;;;;;;;;;;;;31.85;100.00;99028.75;5133557;28;20522;-56
2022/06/27 12:16:24;;;;;;;;;;;;;;;32.17;100.00;99100.22;5133335;28;20004;-57
2022/06/27 12:18:51;;;;;;;;;;;;;;;31.95;100.00;99091.69;5133383;28;20394;-56
2022/06/27 12:21:17;;;;;;;;;;;;;;;31.83;100.00;99097.31;5133471;28;19932;-55
2022/06/27 12:23:43;;;;;;;;;;;;;;;32.00;100.00;99091.69;5131927;27;20447;-58
2022/06/27 12:26:09;;;;;;;;;;;;;;;31.96;100.00;99079.06;5133648;28;19931;-56
2022/06/27 12:28:36;;;;;;;;;;;;;;;31.57;100.00;99003.25;5133160;28;19927;-58
2022/06/27 12:31:02;;;;;;;;;;;;;;;31.03;100.00;99012.63;5133063;28;20366;-58
2022/06/27 12:33:28;;;;;;;;;;;;;;;31.21;100.00;99002.91;5133061;28;20474;-59
2022/06/27 12:35:54;;;;;;;;;;;;;;;31.40;100.00;98980.56;5133397;28;19978;-57
2022/06/27 12:38:20;;;;;;;;;;;;;;;31.87;100.00;99003.53;5133039;28;19934;-61
2022/06/27 12:40:46;;;;;;;;;;;;;;;31.52;100.00;99018.94;5133002;28;19927;-62
2022/06/27 12:43:12;;;;;;;;;;;;;;;31.92;100.00;98987.81;5132818;28;19931;-60
2022/06/27 12:45:40;;;;;;;;;;;;;;;31.63;100.00;98973.63;5133118;28;19976;-60